createdAt,value
2022-08-19T00:01:29.029Z,13.38
2022-08-19T00:04:01.230Z,13.77
2022-08-19T00:06:29.057Z,13.52
2022-08-19T00:08:56.890Z,13.60
2022-08-19T00:11:25.921Z,13.70
2022-08-19T00:13:53.504Z,13.90
2022-08-19T00:16:26.014Z,14.85
2022-08-19T00:18:54.342Z,14.30
2022-08-19T00:21:21.501Z,14.68
2022-08-19T00:23:49.010Z,15.10
2022-08-19T00:26:16.273Z,14.70
2022-08-19T00:28:43.561Z,14.75
2022-08-19T00:31:10.951Z,14.77
2022-08-19T00:33:39.038Z,14.93
2022-08-19T00:36:07.161Z,14.95
2022-08-19T00:38:37.999Z,14.48
2022-08-19T00:41:08.198Z,14.32
2022-08-19T00:43:35.935Z,15.13
2022-08-19T00:46:05.654Z,15.00
2022-08-19T00:48:34.485Z,15.57
2022-08-19T00:51:02.173Z,15.15
2022-08-19T00:53:30.243Z,15.73
2022-08-19T00:55:59.691Z,15.20
2022-08-19T00:58:28.723Z,15.38
2022-08-19T01:00:55.921Z,14.73
2022-08-19T01:03:23.568Z,14.32
2022-08-19T01:05:52.362Z,15.25
2022-08-19T01:08:20.979Z,15.00
2022-08-19T01:10:59.694Z,14.57
2022-08-19T01:13:28.486Z,14.45
2022-08-19T01:16:12.497Z,15.93
2022-08-19T01:18:41.908Z,15.27
2022-08-19T01:21:27.827Z,15.15
2022-08-19T01:23:55.045Z,14.90
2022-08-19T01:26:23.958Z,13.95
2022-08-19T01:28:52.634Z,14.98
2022-08-19T01:31:27.409Z,15.02
2022-08-19T01:33:56.438Z,15.02
2022-08-19T01:36:26.909Z,14.07
2022-08-19T01:38:54.761Z,14.75
2022-08-19T01:41:24.252Z,14.70
2022-08-19T01:44:13.197Z,14.18
2022-08-19T01:46:39.462Z,14.52
2022-08-19T01:49:07.206Z,14.30
2022-08-19T01:51:39.846Z,15.00
2022-08-19T01:54:07.662Z,14.95
2022-08-19T01:56:34.799Z,14.85
2022-08-19T01:59:03.393Z,16.05
2022-08-19T02:01:32.934Z,15.52
2022-08-19T02:04:01.694Z,14.40
2022-08-19T02:06:29.337Z,15.10
2022-08-19T02:08:57.399Z,15.50
2022-08-19T02:11:27.438Z,15.40
2022-08-19T02:13:55.236Z,15.32
2022-08-19T02:16:22.851Z,16.35
2022-08-19T02:18:50.064Z,15.65
2022-08-19T02:21:18.704Z,16.02
2022-08-19T02:23:45.904Z,14.80
2022-08-19T02:26:13.487Z,15.07
2022-08-19T02:28:41.533Z,15.02
2022-08-19T02:31:13.241Z,14.57
2022-08-19T02:33:40.603Z,15.25
2022-08-19T02:36:08.350Z,16.25
2022-08-19T02:38:35.727Z,15.65
2022-08-19T02:41:04.321Z,15.00
2022-08-19T02:43:34.459Z,17.63
2022-08-19T02:46:02.234Z,16.63
2022-08-19T02:48:29.385Z,16.48
2022-08-19T02:50:56.640Z,17.10
2022-08-19T02:53:25.311Z,17.00
2022-08-19T02:55:52.657Z,17.90
2022-08-19T02:58:20.302Z,17.80
2022-08-19T03:00:49.920Z,18.83
2022-08-19T03:03:17.509Z,17.42
2022-08-19T03:05:56.015Z,18.13
2022-08-19T03:08:25.286Z,18.13
2022-08-19T03:10:53.961Z,18.75
2022-08-19T03:13:21.484Z,18.05
2022-08-19T03:15:49.308Z,18.88
2022-08-19T03:18:18.098Z,19.00
2022-08-19T03:20:55.383Z,17.98
2022-08-19T03:23:22.606Z,18.40
2022-08-19T03:25:59.299Z,18.15
2022-08-19T03:28:38.299Z,18.23
2022-08-19T03:31:44.156Z,19.40
2022-08-19T03:33:55.111Z,18.90
2022-08-19T03:36:26.187Z,18.30
2022-08-19T03:39:00.173Z,18.45
2022-08-19T03:41:43.278Z,18.63
2022-08-19T03:44:16.624Z,18.77
2022-08-19T03:46:46.454Z,19.38
2022-08-19T03:49:14.270Z,18.95
2022-08-19T03:51:42.738Z,18.77
2022-08-19T03:54:12.404Z,19.75
2022-08-19T03:56:40.660Z,18.65
2022-08-19T03:59:09.000Z,20.05
2022-08-19T04:01:36.765Z,19.15
2022-08-19T04:04:04.723Z,19.20
2022-08-19T04:06:33.346Z,19.35
2022-08-19T04:09:02.189Z,19.83
2022-08-19T04:11:42.760Z,18.58
2022-08-19T04:14:12.191Z,19.65
2022-08-19T04:16:39.453Z,20.05
2022-08-19T04:19:07.940Z,20.55
2022-08-19T04:21:35.092Z,19.38
2022-08-19T04:24:03.852Z,19.60
2022-08-19T04:26:36.896Z,19.45
2022-08-19T04:29:10.421Z,21.02
2022-08-19T04:31:39.140Z,20.45
2022-08-19T04:34:07.698Z,19.55
2022-08-19T04:36:36.011Z,20.05
2022-08-19T04:39:06.017Z,21.20
2022-08-19T04:41:52.159Z,20.02
2022-08-19T04:44:19.663Z,22.20
2022-08-19T04:46:51.213Z,21.52
2022-08-19T04:49:19.964Z,21.27
2022-08-19T04:51:48.726Z,20.95
2022-08-19T04:54:19.101Z,19.73
2022-08-19T04:57:06.099Z,21.55
2022-08-19T04:59:34.553Z,20.90
2022-08-19T05:02:01.797Z,19.75
2022-08-19T05:04:32.923Z,21.15
2022-08-19T05:07:01.610Z,20.75
2022-08-19T05:09:52.533Z,21.42
2022-08-19T05:12:16.797Z,21.58
2022-08-19T05:14:45.902Z,19.90
2022-08-19T05:17:31.320Z,21.77
2022-08-19T05:20:19.274Z,21.95
2022-08-19T05:22:47.405Z,20.90
2022-08-19T05:25:16.233Z,19.52
2022-08-19T05:27:43.967Z,21.67
2022-08-19T05:30:12.331Z,21.77
2022-08-19T05:32:40.154Z,20.13
2022-08-19T05:35:07.782Z,21.10
2022-08-19T05:37:34.904Z,19.70
2022-08-19T05:40:02.438Z,21.33
2022-08-19T05:42:29.738Z,21.00
2022-08-19T05:44:57.657Z,21.77
2022-08-19T05:47:24.913Z,21.17
2022-08-19T05:49:52.108Z,22.27
2022-08-19T05:52:25.411Z,22.02
2022-08-19T05:54:55.517Z,23.50
2022-08-19T05:57:22.654Z,21.45
2022-08-19T05:59:53.314Z,21.25
2022-08-19T06:02:26.952Z,22.63
2022-08-19T06:04:54.178Z,21.08
2022-08-19T06:07:21.508Z,21.45
2022-08-19T06:09:56.019Z,25.63
2022-08-19T06:12:32.250Z,23.42
2022-08-19T06:15:00.848Z,22.10
2022-08-19T06:17:31.000Z,25.15
2022-08-19T06:19:59.582Z,25.98
2022-08-19T06:22:27.039Z,25.63
2022-08-19T06:24:54.910Z,24.67
2022-08-19T06:27:22.439Z,25.63
2022-08-19T06:29:49.715Z,26.27
2022-08-19T06:32:18.598Z,27.63
2022-08-19T06:34:45.769Z,26.08
2022-08-19T06:37:12.933Z,24.95
2022-08-19T06:39:41.480Z,25.30
2022-08-19T06:42:12.280Z,25.73
2022-08-19T06:44:43.365Z,25.67
2022-08-19T06:47:14.379Z,25.02
2022-08-19T06:49:42.770Z,27.05
2022-08-19T06:52:13.916Z,25.15
2022-08-19T06:54:55.997Z,25.50
2022-08-19T06:57:24.524Z,26.40
2022-08-19T06:59:51.894Z,27.15
2022-08-19T07:02:19.583Z,26.17
2022-08-19T07:04:46.767Z,27.92
2022-08-19T07:07:20.159Z,29.65
2022-08-19T07:09:55.361Z,27.25
2022-08-19T07:12:28.092Z,27.45
2022-08-19T07:14:56.824Z,27.98
2022-08-19T07:17:25.086Z,25.98
2022-08-19T07:19:54.197Z,27.02
2022-08-19T07:22:23.871Z,25.73
2022-08-19T07:24:51.900Z,28.48
2022-08-19T07:27:24.799Z,26.92
2022-08-19T07:29:55.929Z,26.27
2022-08-19T07:32:26.803Z,26.02
2022-08-19T07:34:54.013Z,27.15
2022-08-19T07:37:21.141Z,25.10
2022-08-19T07:39:48.845Z,26.15
2022-08-19T07:42:16.212Z,25.92
2022-08-19T07:44:50.461Z,26.77
2022-08-19T07:47:48.779Z,26.42
2022-08-19T07:50:05.977Z,27.13
2022-08-19T07:52:37.230Z,27.52
2022-08-19T07:55:05.343Z,28.10
2022-08-19T07:57:32.737Z,27.83
2022-08-19T08:00:00.508Z,28.65
2022-08-19T08:02:27.686Z,27.70
2022-08-19T08:05:13.527Z,29.30
2022-08-19T08:07:59.515Z,28.58
2022-08-19T08:10:26.829Z,28.73
2022-08-19T08:13:08.866Z,26.73
2022-08-19T08:15:42.141Z,29.45
2022-08-19T08:18:10.715Z,29.92
2022-08-19T08:20:37.874Z,27.75
2022-08-19T08:23:23.366Z,28.88
2022-08-19T08:25:50.695Z,27.27
2022-08-19T08:28:18.311Z,27.08
2022-08-19T08:30:49.054Z,27.95
2022-08-19T08:33:32.645Z,26.83
2022-08-19T08:36:01.632Z,27.20
2022-08-19T08:38:38.422Z,27.45
2022-08-19T08:41:20.645Z,26.50
2022-08-19T08:43:49.658Z,26.05
2022-08-19T08:46:30.916Z,26.33
2022-08-19T08:49:02.266Z,28.35
2022-08-19T08:51:36.853Z,28.15
2022-08-19T08:54:09.887Z,26.85
2022-08-19T08:56:39.219Z,26.17
2022-08-19T08:59:10.847Z,25.75
2022-08-19T09:01:39.322Z,26.73
2022-08-19T09:04:07.438Z,25.75
2022-08-19T09:06:40.976Z,27.10
2022-08-19T09:09:12.198Z,25.63
2022-08-19T09:11:44.566Z,26.17
2022-08-19T09:14:49.301Z,23.75
2022-08-19T09:17:15.826Z,26.10
2022-08-19T09:19:54.158Z,25.25
2022-08-19T09:22:25.505Z,25.95
2022-08-19T09:24:53.303Z,25.75
2022-08-19T09:27:21.855Z,24.15
2022-08-19T09:29:49.839Z,24.48
2022-08-19T09:32:26.482Z,24.23
2022-08-19T09:34:55.649Z,25.08
2022-08-19T09:37:23.366Z,26.60
2022-08-19T09:39:52.492Z,25.65
2022-08-19T09:42:30.292Z,27.15
2022-08-19T09:45:05.091Z,25.50
2022-08-19T09:47:39.017Z,26.90
2022-08-19T09:50:09.354Z,26.55
2022-08-19T09:52:37.845Z,28.58
2022-08-19T09:55:09.765Z,27.58
2022-08-19T09:57:37.322Z,25.48
2022-08-19T10:00:08.795Z,26.17
2022-08-19T10:02:36.602Z,25.13
2022-08-19T10:05:26.675Z,25.67
2022-08-19T10:07:56.742Z,25.58
2022-08-19T10:10:25.002Z,25.10
2022-08-19T10:12:52.194Z,24.60
2022-08-19T10:15:28.856Z,27.42
2022-08-19T10:17:56.507Z,26.88
2022-08-19T10:20:25.969Z,26.20
2022-08-19T10:22:53.354Z,25.45
2022-08-19T10:25:20.903Z,24.08
2022-08-19T10:27:53.054Z,25.40
2022-08-19T10:30:23.288Z,25.92
2022-08-19T10:32:52.199Z,25.83
2022-08-19T10:35:22.102Z,25.05
2022-08-19T10:37:56.781Z,25.73
2022-08-19T10:40:25.247Z,25.63
2022-08-19T10:42:52.465Z,26.35
2022-08-19T10:45:19.990Z,25.35
2022-08-19T10:47:47.661Z,24.45
2022-08-19T10:50:33.418Z,25.35
2022-08-19T10:53:08.155Z,23.90
2022-08-19T10:55:55.729Z,24.50
2022-08-19T10:58:26.885Z,24.42
2022-08-19T11:00:58.117Z,23.60
2022-08-19T11:03:26.229Z,24.70
2022-08-19T11:06:00.313Z,24.58
2022-08-19T11:08:27.800Z,23.50
2022-08-19T11:11:01.450Z,22.63
2022-08-19T11:13:29.807Z,22.85
2022-08-19T11:16:07.656Z,22.95
2022-08-19T11:18:39.412Z,24.15
2022-08-19T11:21:11.248Z,24.98
2022-08-19T11:23:38.923Z,24.83
2022-08-19T11:26:06.152Z,24.63
2022-08-19T11:28:33.334Z,25.73
2022-08-19T11:31:01.361Z,24.88
2022-08-19T11:33:28.501Z,23.50
2022-08-19T11:35:55.651Z,24.92
2022-08-19T11:38:22.811Z,25.88
2022-08-19T11:40:55.942Z,28.70
2022-08-19T11:43:23.215Z,26.40
2022-08-19T11:45:50.365Z,27.35
2022-08-19T11:48:18.244Z,30.52
2022-08-19T11:50:45.539Z,30.23
2022-08-19T11:53:12.675Z,29.45
2022-08-19T11:55:43.433Z,28.83
2022-08-19T11:58:18.891Z,28.67
2022-08-19T12:00:46.476Z,27.48
2022-08-19T12:03:14.779Z,26.95
2022-08-19T12:05:42.430Z,27.75
2022-08-19T12:08:10.118Z,26.50
2022-08-19T12:10:37.739Z,25.98
2022-08-19T12:13:04.878Z,28.02
2022-08-19T12:15:37.015Z,28.00
2022-08-19T12:18:04.883Z,25.10
2022-08-19T12:20:32.771Z,24.60
2022-08-19T12:23:04.059Z,27.55
2022-08-19T12:25:31.833Z,28.38
2022-08-19T12:27:59.582Z,26.15
2022-08-19T12:30:27.087Z,26.45
2022-08-19T12:32:54.410Z,25.60
2022-08-19T12:35:22.097Z,28.10
2022-08-19T12:37:56.989Z,23.55
2022-08-19T12:40:26.275Z,26.75
2022-08-19T12:42:53.862Z,26.15
2022-08-19T12:45:21.190Z,25.50
2022-08-19T12:47:49.566Z,24.52
2022-08-19T12:50:16.955Z,24.67
2022-08-19T12:52:44.094Z,24.85
2022-08-19T12:55:12.554Z,26.30
2022-08-19T12:57:39.961Z,26.95
2022-08-19T13:00:11.594Z,26.67
2022-08-19T13:02:42.385Z,27.35
2022-08-19T13:05:10.760Z,32.17
2022-08-19T13:07:39.380Z,52.42
2022-08-19T13:10:07.597Z,36.35
2022-08-19T13:12:34.823Z,35.70
2022-08-19T13:15:02.789Z,34.70
2022-08-19T13:17:29.940Z,32.60
2022-08-19T13:19:57.083Z,31.08
2022-08-19T13:22:25.930Z,34.25
2022-08-19T13:24:53.797Z,34.53
2022-08-19T13:27:20.972Z,31.42
2022-08-19T13:30:06.721Z,32.55
2022-08-19T13:32:52.390Z,32.60
2022-08-19T13:35:20.075Z,34.65
2022-08-19T13:37:47.235Z,34.53
2022-08-19T13:40:18.099Z,36.40
2022-08-19T13:42:47.184Z,36.15
2022-08-19T13:45:15.925Z,37.25
2022-08-19T13:47:46.168Z,36.83
2022-08-19T13:50:14.087Z,37.95
2022-08-19T13:52:41.318Z,37.05
2022-08-19T13:55:08.929Z,36.45
2022-08-19T13:57:36.301Z,35.90
2022-08-19T14:00:05.571Z,35.90
2022-08-19T14:02:32.747Z,34.70
2022-08-19T14:05:00.375Z,35.47
2022-08-19T14:07:27.553Z,36.20
2022-08-19T14:09:54.715Z,35.75
2022-08-19T14:12:28.846Z,32.17
2022-08-19T14:14:56.470Z,35.60
2022-08-19T14:17:23.626Z,32.60
2022-08-19T14:19:50.773Z,29.05
2022-08-19T14:22:22.045Z,27.13
2022-08-19T14:24:51.091Z,24.38
2022-08-19T14:27:18.232Z,23.27
2022-08-19T14:29:46.427Z,22.02
2022-08-19T14:32:16.909Z,21.88
2022-08-19T14:34:46.663Z,21.50
2022-08-19T14:37:17.508Z,20.70
2022-08-19T14:39:46.143Z,20.45
2022-08-19T14:42:15.776Z,20.40
2022-08-19T14:44:43.726Z,21.35
2022-08-19T14:47:10.908Z,23.80
2022-08-19T14:49:43.102Z,23.77
2022-08-19T14:52:13.343Z,25.13
2022-08-19T14:54:40.476Z,25.92
2022-08-19T14:57:07.676Z,26.52
2022-08-19T14:59:36.089Z,28.67
2022-08-19T15:02:33.454Z,28.50
2022-08-19T15:04:58.289Z,32.72
2022-08-19T15:07:29.516Z,33.05
2022-08-19T15:09:57.066Z,33.47
2022-08-19T15:12:24.826Z,33.80
2022-08-19T15:14:56.169Z,29.27
2022-08-19T15:17:32.459Z,30.23
2022-08-19T15:20:13.683Z,30.65
2022-08-19T15:22:42.104Z,31.63
2022-08-19T15:25:11.689Z,30.95
2022-08-19T15:27:40.623Z,30.38
2022-08-19T15:30:09.858Z,27.55
2022-08-19T15:32:37.407Z,28.23
2022-08-19T15:35:06.031Z,27.58
2022-08-19T15:37:36.961Z,29.13
2022-08-19T15:40:05.642Z,29.98
2022-08-19T15:42:32.972Z,30.73
2022-08-19T15:45:01.359Z,27.70
2022-08-19T15:47:35.426Z,27.83
2022-08-19T15:50:17.296Z,29.75
2022-08-19T15:52:50.061Z,31.17
2022-08-19T15:55:33.479Z,33.60
2022-08-19T15:58:29.248Z,35.45
2022-08-19T16:01:27.287Z,32.85
2022-08-19T16:04:15.839Z,35.67
2022-08-19T16:06:48.771Z,36.30
2022-08-19T16:09:16.511Z,40.13
2022-08-19T16:11:45.861Z,41.67
2022-08-19T16:14:13.701Z,41.47
2022-08-19T16:16:40.813Z,43.55
2022-08-19T16:19:10.636Z,46.13
2022-08-19T16:21:41.584Z,43.28
2022-08-19T16:24:10.770Z,41.45
2022-08-19T16:26:38.053Z,37.70
2022-08-19T16:29:08.959Z,36.83
2022-08-19T16:31:39.799Z,38.35
2022-08-19T16:34:07.360Z,39.58
2022-08-19T16:36:34.749Z,42.72
2022-08-19T16:39:02.092Z,38.78
2022-08-19T16:41:30.103Z,39.55
2022-08-19T16:43:57.408Z,38.10
2022-08-19T16:46:27.103Z,42.15
2022-08-19T16:48:54.940Z,43.50
2022-08-19T16:51:22.857Z,44.28
2022-08-19T16:53:52.638Z,44.33
2022-08-19T16:56:20.336Z,44.78
2022-08-19T16:58:47.783Z,47.45
2022-08-19T17:01:15.025Z,46.80
2022-08-19T17:03:42.206Z,48.95
2022-08-19T17:06:20.305Z,46.00
2022-08-19T17:08:49.102Z,38.63
2022-08-19T17:11:19.177Z,38.80
2022-08-19T17:13:47.783Z,33.25
2022-08-19T17:16:16.062Z,33.10
2022-08-19T17:18:43.344Z,30.27
2022-08-19T17:21:12.213Z,31.02
2022-08-19T17:23:43.320Z,33.03
2022-08-19T17:26:18.238Z,30.57
2022-08-19T17:28:49.005Z,29.65
2022-08-19T17:31:16.695Z,26.95
2022-08-19T17:33:48.742Z,28.40
2022-08-19T17:36:17.187Z,29.08
2022-08-19T17:38:44.436Z,30.08
2022-08-19T17:41:11.702Z,29.92
2022-08-19T17:43:43.359Z,30.00
2022-08-19T17:46:17.886Z,29.05
2022-08-19T17:48:51.455Z,31.08
2022-08-19T17:51:21.947Z,29.83
2022-08-19T17:53:50.786Z,27.85
2022-08-19T17:56:18.057Z,27.63
2022-08-19T17:58:51.129Z,30.13
2022-08-19T18:01:31.444Z,26.40
2022-08-19T18:04:14.846Z,27.05
2022-08-19T18:06:46.613Z,27.55
2022-08-19T18:09:23.806Z,29.25
2022-08-19T18:11:52.788Z,27.73
2022-08-19T18:14:20.640Z,25.30
2022-08-19T18:16:47.788Z,30.00
2022-08-19T18:19:14.930Z,27.90
2022-08-19T18:21:42.075Z,28.80
2022-08-19T18:24:09.252Z,31.13
2022-08-19T18:26:36.390Z,28.42
2022-08-19T18:29:03.575Z,27.60
2022-08-19T18:31:30.750Z,27.27
2022-08-19T18:33:58.303Z,28.92
2022-08-19T18:36:52.121Z,29.13
2022-08-19T18:39:32.005Z,27.63
2022-08-19T18:42:17.797Z,28.75
2022-08-19T18:45:11.421Z,30.73
2022-08-19T18:47:57.333Z,28.48
2022-08-19T18:50:24.472Z,31.95
2022-08-19T18:52:51.643Z,28.45
2022-08-19T18:55:18.845Z,31.67
2022-08-19T18:57:46.157Z,30.90
2022-08-19T19:00:14.086Z,28.38
2022-08-19T19:02:41.245Z,28.65
2022-08-19T19:05:08.504Z,28.80
2022-08-19T19:07:36.197Z,24.17
2022-08-19T19:10:03.795Z,25.90
2022-08-19T19:12:31.010Z,25.30
2022-08-19T19:14:58.846Z,25.45
2022-08-19T19:17:28.473Z,27.90
2022-08-19T19:19:55.723Z,27.95
2022-08-19T19:22:24.006Z,25.63
2022-08-19T19:24:51.897Z,26.38
2022-08-19T19:27:20.540Z,33.42
2022-08-19T19:29:52.020Z,30.85
2022-08-19T19:32:24.130Z,28.20
2022-08-19T19:34:51.283Z,28.40
2022-08-19T19:37:18.486Z,27.35
2022-08-19T19:39:47.515Z,27.73
2022-08-19T19:42:19.745Z,29.80
2022-08-19T19:44:49.218Z,28.65
2022-08-19T19:47:17.487Z,29.48
2022-08-19T19:50:10.624Z,26.48
2022-08-19T19:52:32.919Z,26.58
2022-08-19T19:55:01.224Z,29.13
2022-08-19T19:57:30.286Z,30.75
2022-08-19T19:59:57.542Z,29.77
2022-08-19T20:02:25.220Z,28.15
2022-08-19T20:04:52.430Z,29.08
2022-08-19T20:07:39.756Z,26.67
2022-08-19T20:10:07.038Z,30.55
2022-08-19T20:12:34.188Z,31.13
2022-08-19T20:15:01.419Z,29.58
2022-08-19T20:17:28.555Z,28.83
2022-08-19T20:19:57.465Z,30.58
2022-08-19T20:22:25.798Z,29.05
2022-08-19T20:24:56.207Z,30.50
2022-08-19T20:27:25.787Z,28.30
2022-08-19T20:29:54.883Z,29.63
2022-08-19T20:32:22.087Z,29.17
2022-08-19T20:34:49.779Z,30.60
2022-08-19T20:37:17.027Z,30.63
2022-08-19T20:39:44.574Z,31.58
2022-08-19T20:42:11.801Z,31.27
2022-08-19T20:44:38.967Z,34.33
2022-08-19T20:47:06.243Z,33.15
2022-08-19T20:49:33.378Z,34.78
2022-08-19T20:52:01.854Z,31.83
2022-08-19T20:54:29.024Z,32.92
2022-08-19T20:56:56.411Z,32.42
2022-08-19T20:59:24.140Z,32.22
2022-08-19T21:01:51.947Z,31.52
2022-08-19T21:04:19.940Z,31.08
2022-08-19T21:06:47.057Z,29.63
2022-08-19T21:09:14.634Z,28.95
2022-08-19T21:11:41.899Z,29.13
2022-08-19T21:14:09.058Z,29.75
2022-08-19T21:16:36.463Z,27.02
2022-08-19T21:19:04.790Z,26.45
2022-08-19T21:21:33.193Z,28.13
2022-08-19T21:24:01.220Z,32.00
2022-08-19T21:26:28.501Z,33.90
2022-08-19T21:28:55.625Z,32.10
2022-08-19T21:31:22.832Z,32.47
2022-08-19T21:33:49.989Z,31.75
2022-08-19T21:36:17.507Z,32.65
2022-08-19T21:38:44.647Z,31.48
2022-08-19T21:41:11.825Z,31.50
2022-08-19T21:43:39.333Z,30.65
2022-08-19T21:46:06.947Z,28.73
2022-08-19T21:48:34.262Z,29.15
2022-08-19T21:51:01.419Z,28.85
2022-08-19T21:53:31.474Z,29.17
2022-08-19T21:56:01.605Z,29.63
2022-08-19T21:58:30.725Z,28.65
2022-08-19T22:01:05.932Z,29.15
2022-08-19T22:03:33.764Z,28.38
2022-08-19T22:06:00.891Z,26.00
2022-08-19T22:08:28.085Z,27.23
2022-08-19T22:10:55.243Z,27.73
2022-08-19T22:13:22.403Z,26.30
2022-08-19T22:15:51.936Z,25.98
2022-08-19T22:18:19.211Z,23.45
2022-08-19T22:20:46.391Z,20.95
2022-08-19T22:23:13.538Z,18.95
2022-08-19T22:25:41.776Z,17.52
2022-08-19T22:28:11.062Z,17.58
2022-08-19T22:30:39.906Z,16.73
2022-08-19T22:33:10.341Z,16.73
2022-08-19T22:35:38.971Z,16.55
2022-08-19T22:38:07.576Z,16.15
2022-08-19T22:40:36.538Z,15.57
2022-08-19T22:43:10.098Z,16.08
2022-08-19T22:45:37.300Z,15.18
2022-08-19T22:48:07.834Z,14.18
2022-08-19T22:50:35.382Z,13.18
2022-08-19T22:53:02.810Z,13.30
2022-08-19T22:55:30.636Z,11.88
2022-08-19T22:57:58.941Z,11.55
2022-08-19T23:00:27.726Z,11.77
2022-08-19T23:02:55.694Z,12.20
2022-08-19T23:05:24.051Z,11.13
2022-08-19T23:07:52.552Z,11.40
2022-08-19T23:10:26.964Z,11.65
2022-08-19T23:12:56.712Z,10.70
2022-08-19T23:15:25.654Z,10.52
2022-08-19T23:17:54.076Z,10.55
2022-08-19T23:20:21.614Z,10.70
2022-08-19T23:22:50.839Z,10.80
2022-08-19T23:25:21.532Z,11.63
2022-08-19T23:28:07.778Z,10.90
2022-08-19T23:30:36.843Z,11.38
2022-08-19T23:33:12.240Z,10.52
2022-08-19T23:35:41.678Z,11.20
2022-08-19T23:38:09.907Z,10.60
2022-08-19T23:40:38.707Z,10.50
2022-08-19T23:43:08.197Z,10.98
2022-08-19T23:45:39.945Z,10.38
2022-08-19T23:48:08.043Z,11.00
2022-08-19T23:50:35.603Z,10.40
2022-08-19T23:53:03.442Z,11.18
2022-08-19T23:55:32.809Z,10.40
2022-08-19T23:58:00.841Z,10.25
